Saint Petersburg, FL

6:55 PM EDT on August 30, 2014 (GMT -0400)
Municipal Marina | Change Station
CLOSE
Current Station
Personal Weather Station
Location: St. Petersburg, FL
Elevation: 0 ft
Nearby Weather Stations
Active Advisory: Special Statement

Elev 0 ft 27.77 °N, 82.63 °W | Updated 1 minute ago

Light Thunderstorms and Rain
Light Thunderstorm Rain
80.1 °F
Feels Like 85 °F
N
-
Wind Variable Wind from North

Today
High -- | Low -- °F
--% Chance of Precip.
Yesterday
High -- | Low -- °F
Precip. -- in
7:08 AM 7:53 PM
Waxing Crescent, 25% visible
Pressure 30.06 in
Visibility 1.8 miles
Clouds Few 3100 ft
Scattered Clouds 4000 ft
Mostly Cloudy 6000 ft
Heat Index 85 °F
Dew Point 75 °F
Humidity 85%
Rainfall -999.00 in
Snow Depth Not available.
UV 0 out of 12
Pollen 4.30 out of 12
Air Quality Not available.
Flu Activity Not available.
SPECI KSPG 302250Z 14035G42KT 1 3/4SM -TSRA FEW031 SCT040 BKN060 28/23 A3006 RMK AO2 PK WND 13042/2248 VIS 1/2V5 LTG DSNT ALQDS RAB46 TSB34 P0000

More Conditions Fewer Conditions

Pressure 30.06 in
Visibility 1.8 miles
Clouds Few 3100 ft
Scattered Clouds 4000 ft
Mostly Cloudy 6000 ft
Heat Index 85 °F
Dew Point 75 °F
Humidity 85%
Rainfall -999.00 in
Snow Depth Not available.
UV 0 out of 12
Pollen 4.30 out of 12
Air Quality Not available.
Flu Activity Not available.
SPECI KSPG 302250Z 14035G42KT 1 3/4SM -TSRA FEW031 SCT040 BKN060 28/23 A3006 RMK AO2 PK WND 13042/2248 VIS 1/2V5 LTG DSNT ALQDS RAB46 TSB34 P0000

More Conditions Fewer Conditions

10-Day Weather Forecast

Almanac

Astronomy

Aug. 30, 2014 Rise Set
Actual Time 7:08 AM EDT 7:53 PM EDT
Civil Twilight 6:44 AM EDT 8:17 PM EDT
Nautical Twilight 6:16 AM EDT 8:45 PM EDT
Astronomical Twilight 5:47 AM EDT 9:13 PM EDT
Moon 11:27 AM EDT 10:56 PM EDT
Length of Visible Light 13h 32m
Length of Day
12h 45m
Tomorrow will be 1m 34s shorter.
Waxing Crescent, 25% of the Moon is Illuminated
Today
Waxing Crescent
Sep 2
First Quarter
Sep 8
Full
Sep 15
Last Quarter
Sep 24
New

Today's Extremes

State Highs State Lows

Community

WunderPhotos

Upload Photos

1,748,663 photos uploaded!

WunderBlogs® & News

Nearby

Air Quality

  Air Quality AQ Index Pollutant
Saturday Good
PM2.5
Saturday Good
OZONE
Sunday Good
PM2.5
Sunday Good
OZONE
Monday Good
PM2.5
Monday Good
OZONE

Snow Depth

Station Depth Elevation
No new snow has been reported.

Earthquake Activity

City Distance Mag. Time & Date
No recent earthquake activity has been reported nearby.
Minimum magnitude displayed is 2.5.

Coastal Water Temperatures

Place Temperature
St Petersburg, FL 90.0 °F
Old Port Tampa, FL 88.0 °F
McKay Bay Entrance, FL 89.1 °F

Nearby Weather Stations